Terminal Aerodrome Forecast
Issued by NWS

Current Version | Previous Version | Graphics & Text | Print | Product List | Glossary On
Versions: 1 2 3 4 5 6 7 8 9 10 11 12 13 14 15 16 17 18 19 20
000
FTUS41 KILN 282300
TAFLUK
TAF
KLUK 282340Z 2900/2924 13003KT P6SM OVC250
     FM291000 16007KT P6SM VCSH BKN060 OVC120
     FM291300 20011G20KT P6SM -RA SCT025 OVC040
     FM291500 21011G19KT 4SM -RA BR OVC020
     FM291900 27014G24KT P6SM VCSH OVC028=

USA.gov is the U.S. government's official web portal to all federal, state and local government web resources and services.